Townville, Pennsylvania
Current Conditions -  °F | °C
As of 5:53 PM on Thursday 18 Dec 2014 (Local Time) from KGKJ Reporting Station
Haze Haze  
Wind Chill: 21°   Ceiling: 700
Heat Index: 28°   Visibility: 3mi
Dew Point: 24°   Wind: 7mph
Humidity: 85%   Direction: 250°WSW
Pressure: 30.11"   Gusts: NA
Location:  41.68°N, 79.88°W
Report Text: KGKJ 182253Z AUTO 25006KT 3SM BR BKN007 OVC011 M02/M04 A3011 RMK AO2 SNE13 SLP211 P0000 T10221044 TSNO
Loading
Personal Weather Stations






























Interactive Weather Map New forecast layout! Learn more

10-Day Weather Forecast

Advertisements
Track Severe Weather on mobile